createdAt,value
2017-10-09T00:01:39.532Z,11.30
2017-10-09T00:04:06.051Z,8.98
2017-10-09T00:06:32.547Z,10.90
2017-10-09T00:08:59.066Z,14.02
2017-10-09T00:11:26.258Z,10.57
2017-10-09T00:13:52.797Z,8.83
2017-10-09T00:16:20.173Z,10.77
2017-10-09T00:18:46.731Z,10.77
2017-10-09T00:21:14.007Z,11.18
2017-10-09T00:23:41.282Z,11.00
2017-10-09T00:26:07.813Z,11.27
2017-10-09T00:28:34.602Z,10.53
2017-10-09T00:31:01.160Z,12.20
2017-10-09T00:33:28.412Z,10.07
2017-10-09T00:35:54.854Z,11.63
2017-10-09T00:38:21.347Z,11.43
2017-10-09T00:40:47.810Z,11.25
2017-10-09T00:43:14.885Z,12.30
2017-10-09T00:45:41.361Z,12.83
2017-10-09T00:48:07.805Z,9.40
2017-10-09T00:50:34.283Z,11.73
2017-10-09T00:53:00.773Z,10.48
2017-10-09T00:55:27.283Z,9.93
2017-10-09T00:57:53.801Z,9.23
2017-10-09T01:00:21.659Z,9.30
2017-10-09T01:02:48.164Z,10.48
2017-10-09T01:05:14.717Z,9.60
2017-10-09T01:07:41.991Z,10.10
2017-10-09T01:10:09.354Z,9.35
2017-10-09T01:12:36.622Z,11.48
2017-10-09T01:15:04.452Z,10.13
2017-10-09T01:17:30.938Z,11.50
2017-10-09T01:19:57.547Z,11.35
2017-10-09T01:22:24.222Z,9.65
2017-10-09T01:24:50.768Z,11.82
2017-10-09T01:27:17.208Z,9.50
2017-10-09T01:29:44.380Z,10.70
2017-10-09T01:32:11.666Z,10.70
2017-10-09T01:34:38.942Z,10.70
2017-10-09T01:37:06.848Z,10.43
2017-10-09T01:39:33.387Z,10.85
2017-10-09T01:41:59.948Z,11.05
2017-10-09T01:44:26.435Z,10.80
2017-10-09T01:46:52.866Z,11.50
2017-10-09T01:49:19.415Z,9.48
2017-10-09T01:51:45.977Z,11.07
2017-10-09T01:54:12.533Z,12.07
2017-10-09T01:56:39.809Z,10.48
2017-10-09T01:59:07.083Z,10.88
2017-10-09T02:01:34.269Z,13.50
2017-10-09T02:04:00.749Z,11.85
2017-10-09T02:06:27.237Z,11.20
2017-10-09T02:08:54.241Z,10.00
2017-10-09T02:11:20.795Z,14.90
2017-10-09T02:13:47.988Z,10.73
2017-10-09T02:16:14.437Z,10.43
2017-10-09T02:18:40.980Z,9.23
2017-10-09T02:21:07.446Z,11.15
2017-10-09T02:23:33.996Z,9.48
2017-10-09T02:26:00.421Z,10.77
2017-10-09T02:28:26.878Z,10.20
2017-10-09T02:30:53.364Z,10.47
2017-10-09T02:33:19.921Z,10.15
2017-10-09T02:35:47.197Z,10.23
2017-10-09T02:38:14.444Z,8.87
2017-10-09T02:40:41.638Z,9.98
2017-10-09T02:43:08.848Z,12.27
2017-10-09T02:45:35.373Z,8.80
2017-10-09T02:48:01.936Z,11.70
2017-10-09T02:50:28.492Z,9.80
2017-10-09T02:52:54.941Z,10.80
2017-10-09T02:55:22.102Z,11.20
2017-10-09T02:57:49.916Z,9.48
2017-10-09T03:00:16.469Z,11.90
2017-10-09T03:02:43.020Z,11.70
2017-10-09T03:05:09.579Z,10.90
2017-10-09T03:07:36.852Z,12.60
2017-10-09T03:10:04.128Z,11.40
2017-10-09T03:12:31.403Z,10.40
2017-10-09T03:14:58.678Z,14.75
2017-10-09T03:17:25.194Z,11.73
2017-10-09T03:19:53.332Z,9.85
2017-10-09T03:22:29.910Z,13.00
2017-10-09T03:24:58.104Z,11.80
2017-10-09T03:27:28.650Z,12.20
2017-10-09T03:29:56.948Z,10.85
2017-10-09T03:32:23.608Z,12.50
2017-10-09T03:34:50.905Z,11.60
2017-10-09T03:37:17.377Z,12.73
2017-10-09T03:39:43.901Z,11.70
2017-10-09T03:42:10.433Z,9.95
2017-10-09T03:44:36.919Z,13.23
2017-10-09T03:47:03.347Z,12.30
2017-10-09T03:49:29.930Z,9.82
2017-10-09T03:51:56.485Z,10.00
2017-10-09T03:54:23.445Z,9.30
2017-10-09T03:56:50.675Z,10.35
2017-10-09T03:59:17.134Z,9.65
2017-10-09T04:01:43.583Z,10.23
2017-10-09T04:04:10.045Z,9.60
2017-10-09T04:06:36.511Z,10.15
2017-10-09T04:09:03.119Z,10.70
2017-10-09T04:11:30.575Z,10.25
2017-10-09T04:13:57.828Z,9.23
2017-10-09T04:16:24.318Z,9.73
2017-10-09T04:18:50.878Z,12.13
2017-10-09T04:21:17.435Z,8.93
2017-10-09T04:23:44.812Z,10.00
2017-10-09T04:26:12.104Z,9.55
2017-10-09T04:28:38.645Z,11.73
2017-10-09T04:31:05.919Z,10.93
2017-10-09T04:33:33.117Z,9.15
2017-10-09T04:35:59.609Z,10.13
2017-10-09T04:38:26.849Z,12.70
2017-10-09T04:40:53.483Z,11.12
2017-10-09T04:43:20.698Z,9.10
2017-10-09T04:45:47.182Z,10.05
2017-10-09T04:48:13.701Z,8.98
2017-10-09T04:50:40.265Z,9.32
2017-10-09T04:53:06.784Z,10.07
2017-10-09T04:55:34.063Z,9.97
2017-10-09T04:58:00.558Z,8.60
2017-10-09T05:00:27.176Z,8.57
2017-10-09T05:02:53.736Z,7.55
2017-10-09T05:05:20.397Z,7.70
2017-10-09T05:07:47.779Z,7.05
2017-10-09T05:10:14.342Z,8.55
2017-10-09T05:12:40.890Z,9.85
2017-10-09T05:15:08.164Z,8.93
2017-10-09T05:17:35.483Z,6.12
2017-10-09T05:20:02.002Z,9.25
2017-10-09T05:22:28.566Z,7.70
2017-10-09T05:24:55.023Z,11.10
2017-10-09T05:27:21.569Z,7.47
2017-10-09T05:29:48.591Z,7.07
2017-10-09T05:32:15.505Z,8.65
2017-10-09T05:34:42.779Z,9.65
2017-10-09T05:37:09.336Z,10.57
2017-10-09T05:39:36.610Z,8.98
2017-10-09T05:42:03.813Z,10.20
2017-10-09T05:44:30.444Z,8.73
2017-10-09T05:46:57.638Z,12.63
2017-10-09T05:49:24.174Z,8.32
2017-10-09T05:51:51.451Z,8.55
2017-10-09T05:54:17.890Z,10.05
2017-10-09T05:56:45.073Z,9.80
2017-10-09T05:59:12.458Z,8.30
2017-10-09T06:01:38.940Z,7.47
2017-10-09T06:04:05.470Z,8.82
2017-10-09T06:06:32.642Z,7.10
2017-10-09T06:08:59.200Z,9.90
2017-10-09T06:11:25.758Z,10.82
2017-10-09T06:13:52.277Z,11.93
2017-10-09T06:16:18.875Z,8.10
2017-10-09T06:18:46.151Z,9.57
2017-10-09T06:21:12.707Z,9.90
2017-10-09T06:23:39.905Z,10.60
2017-10-09T06:26:06.438Z,9.32
2017-10-09T06:28:33.696Z,10.38
2017-10-09T06:31:00.932Z,7.53
2017-10-09T06:33:27.451Z,8.40
2017-10-09T06:35:53.906Z,9.00
2017-10-09T06:38:20.368Z,11.50
2017-10-09T06:40:46.913Z,8.70
2017-10-09T06:43:14.175Z,6.73
2017-10-09T06:45:41.419Z,9.20
2017-10-09T06:48:07.921Z,6.03
2017-10-09T06:50:34.479Z,6.57
2017-10-09T06:53:01.036Z,8.40
2017-10-09T06:55:27.595Z,4.93
2017-10-09T06:57:54.049Z,6.28
2017-10-09T07:00:21.324Z,6.30
2017-10-09T07:02:48.512Z,5.35
2017-10-09T07:05:15.014Z,5.37
2017-10-09T07:07:41.542Z,4.73
2017-10-09T07:10:08.051Z,5.40
2017-10-09T07:12:35.258Z,4.40
2017-10-09T07:15:01.714Z,4.75
2017-10-09T07:17:28.235Z,4.95
2017-10-09T07:19:55.415Z,4.45
2017-10-09T07:22:22.713Z,4.72
2017-10-09T07:24:49.246Z,5.45
2017-10-09T07:27:16.444Z,6.80
2017-10-09T07:29:42.939Z,4.35
2017-10-09T07:32:09.413Z,4.13
2017-10-09T07:34:35.872Z,7.47
2017-10-09T07:37:02.337Z,4.00
2017-10-09T07:39:28.805Z,9.13
2017-10-09T07:41:55.999Z,4.32
2017-10-09T07:44:22.550Z,4.03
2017-10-09T07:46:49.017Z,4.45
2017-10-09T07:49:15.471Z,4.32
2017-10-09T07:51:41.976Z,4.10
2017-10-09T07:54:08.518Z,3.60
2017-10-09T07:56:35.252Z,3.28
2017-10-09T07:59:01.742Z,3.20
2017-10-09T08:01:28.146Z,8.95
2017-10-09T08:03:55.404Z,3.58
2017-10-09T08:06:22.592Z,3.80
2017-10-09T08:08:49.106Z,3.72
2017-10-09T08:11:15.596Z,5.00
2017-10-09T08:13:42.782Z,3.30
2017-10-09T08:16:09.819Z,3.72
2017-10-09T08:18:36.413Z,2.30
2017-10-09T08:21:02.968Z,3.65
2017-10-09T08:23:30.243Z,3.70
2017-10-09T08:25:57.436Z,3.55
2017-10-09T08:28:23.973Z,3.72
2017-10-09T08:30:50.398Z,4.10
2017-10-09T08:33:17.484Z,4.22
2017-10-09T08:35:44.775Z,4.78
2017-10-09T08:38:11.333Z,3.72
2017-10-09T08:40:38.283Z,6.57
2017-10-09T08:43:05.676Z,7.55
2017-10-09T08:45:32.132Z,8.23
2017-10-09T08:47:59.323Z,5.65
2017-10-09T08:50:25.865Z,6.30
2017-10-09T08:52:52.380Z,7.07
2017-10-09T08:55:18.983Z,6.47
2017-10-09T08:57:45.541Z,5.40
2017-10-09T09:00:12.082Z,6.37
2017-10-09T09:02:39.371Z,4.53
2017-10-09T09:05:06.748Z,4.62
2017-10-09T09:07:33.408Z,8.88
2017-10-09T09:10:00.786Z,5.97
2017-10-09T09:12:27.445Z,6.95
2017-10-09T09:14:54.212Z,5.65
2017-10-09T09:17:20.872Z,5.70
2017-10-09T09:19:47.738Z,5.82
2017-10-09T09:22:14.237Z,8.75
2017-10-09T09:24:40.749Z,5.62
2017-10-09T09:27:07.195Z,5.20
2017-10-09T09:29:34.481Z,5.07
2017-10-09T09:32:01.039Z,3.15
2017-10-09T09:34:27.490Z,4.60
2017-10-09T09:36:54.772Z,5.05
2017-10-09T09:39:21.429Z,5.18
2017-10-09T09:41:47.989Z,4.22
2017-10-09T09:44:14.455Z,5.65
2017-10-09T09:46:41.002Z,6.60
2017-10-09T09:49:08.263Z,3.92
2017-10-09T09:51:35.654Z,4.07
2017-10-09T09:54:02.174Z,4.80
2017-10-09T09:56:28.696Z,5.78
2017-10-09T09:58:55.144Z,5.57
2017-10-09T10:01:21.682Z,4.32
2017-10-09T10:03:48.148Z,3.92
2017-10-09T10:06:14.708Z,5.05
2017-10-09T10:08:41.256Z,3.10
2017-10-09T10:11:08.230Z,3.00
2017-10-09T10:13:34.700Z,4.22
2017-10-09T10:16:01.340Z,4.20
2017-10-09T10:18:27.863Z,2.57
2017-10-09T10:20:54.354Z,4.40
2017-10-09T10:23:20.805Z,3.22
2017-10-09T10:25:48.045Z,4.93
2017-10-09T10:28:14.643Z,4.35
2017-10-09T10:30:41.906Z,4.90
2017-10-09T10:33:09.118Z,4.35
2017-10-09T10:35:35.649Z,3.85
2017-10-09T10:38:02.129Z,8.18
2017-10-09T10:40:28.579Z,21.90
2017-10-09T10:42:55.041Z,4.00
2017-10-09T10:45:22.198Z,3.67
2017-10-09T10:47:48.816Z,3.45
2017-10-09T10:50:15.306Z,18.87
2017-10-09T10:52:41.865Z,10.63
2017-10-09T10:55:09.058Z,3.97
2017-10-09T10:57:35.596Z,3.70
2017-10-09T11:00:02.156Z,3.22
2017-10-09T11:02:28.812Z,3.87
2017-10-09T11:04:56.090Z,3.58
2017-10-09T11:07:22.647Z,2.80
2017-10-09T11:09:49.113Z,2.15
2017-10-09T11:12:15.611Z,3.13
2017-10-09T11:14:42.119Z,2.90
2017-10-09T11:17:08.613Z,2.27
2017-10-09T11:19:35.233Z,2.95
2017-10-09T11:22:02.471Z,3.60
2017-10-09T11:24:29.623Z,27.52
2017-10-09T11:26:56.137Z,17.55
2017-10-09T11:29:22.598Z,2.87
2017-10-09T11:31:49.051Z,6.43
2017-10-09T11:34:15.609Z,3.70
2017-10-09T11:36:42.086Z,4.60
2017-10-09T11:39:08.549Z,4.40
2017-10-09T11:41:35.076Z,22.23
2017-10-09T11:44:02.357Z,5.87
2017-10-09T11:46:28.912Z,4.70
2017-10-09T11:48:55.470Z,2.50
2017-10-09T11:51:22.026Z,6.55
2017-10-09T11:53:48.585Z,6.70
2017-10-09T11:56:15.860Z,2.55
2017-10-09T11:58:43.137Z,49.90
2017-10-09T12:01:09.692Z,9.07
2017-10-09T12:03:36.967Z,7.95
2017-10-09T12:06:04.152Z,3.15
2017-10-09T12:08:30.617Z,3.83
2017-10-09T12:10:57.063Z,10.82
2017-10-09T12:13:23.609Z,29.48
2017-10-09T12:15:50.812Z,3.33
2017-10-09T12:18:17.349Z,8.68
2017-10-09T12:20:43.815Z,7.03
2017-10-09T12:23:10.323Z,4.70
2017-10-09T12:25:37.018Z,3.80
2017-10-09T12:28:03.543Z,33.93
2017-10-09T12:30:30.039Z,11.00
2017-10-09T12:32:56.792Z,33.35
2017-10-09T12:35:23.352Z,41.53
2017-10-09T12:37:50.830Z,51.87
2017-10-09T12:40:18.028Z,9.95
2017-10-09T12:42:44.586Z,15.35
2017-10-09T12:45:11.120Z,22.25
2017-10-09T12:47:37.783Z,26.48
2017-10-09T12:50:04.340Z,15.63
2017-10-09T12:52:30.898Z,4.93
2017-10-09T12:54:57.907Z,2.50
2017-10-09T12:57:24.527Z,2.20
2017-10-09T12:59:51.089Z,2.20
2017-10-09T13:02:17.645Z,3.90
2017-10-09T13:04:44.199Z,5.87
2017-10-09T13:07:10.758Z,3.00
2017-10-09T13:09:38.033Z,2.27
2017-10-09T13:12:05.307Z,1.90
2017-10-09T13:14:32.583Z,2.00
2017-10-09T13:16:59.139Z,1.37
2017-10-09T13:19:26.413Z,1.37
2017-10-09T13:21:52.973Z,1.77
2017-10-09T13:24:20.247Z,2.12
2017-10-09T13:26:48.645Z,2.20
2017-10-09T13:29:15.075Z,2.15
2017-10-09T13:31:41.660Z,1.87
2017-10-09T13:34:08.117Z,1.55
2017-10-09T13:36:34.579Z,1.85
2017-10-09T13:39:01.234Z,2.37
2017-10-09T13:41:27.794Z,2.22
2017-10-09T13:43:55.174Z,1.98
2017-10-09T13:46:21.728Z,2.17
2017-10-09T13:48:48.289Z,2.20
2017-10-09T13:51:14.850Z,2.80
2017-10-09T13:53:41.404Z,2.67
2017-10-09T13:56:07.965Z,2.97
2017-10-09T13:58:34.461Z,2.10
2017-10-09T14:01:00.939Z,3.17
2017-10-09T14:03:28.351Z,7.90
2017-10-09T14:05:56.151Z,2.17
2017-10-09T14:08:22.697Z,1.93
2017-10-09T14:10:49.182Z,5.83
2017-10-09T14:13:16.021Z,2.87
2017-10-09T14:15:42.577Z,3.03
2017-10-09T14:18:09.136Z,2.67
2017-10-09T14:20:35.807Z,3.00
2017-10-09T14:23:02.358Z,2.45
2017-10-09T14:25:28.914Z,3.78
2017-10-09T14:27:55.675Z,3.12
2017-10-09T14:30:22.179Z,2.00
2017-10-09T14:40:09.237Z,5.50
2017-10-09T14:42:36.569Z,7.03
2017-10-09T14:45:03.135Z,5.85
2017-10-09T14:47:29.783Z,7.62
2017-10-09T14:49:56.454Z,4.35
2017-10-09T14:52:22.947Z,5.32
2017-10-09T14:54:49.406Z,7.07
2017-10-09T14:57:15.858Z,5.85
2017-10-09T14:59:42.953Z,14.95
2017-10-09T15:02:11.083Z,7.72
2017-10-09T15:04:37.734Z,5.28
2017-10-09T15:07:04.707Z,4.00
2017-10-09T15:09:31.170Z,4.87
2017-10-09T15:11:57.715Z,4.60
2017-10-09T15:14:24.274Z,4.40
2017-10-09T15:16:50.735Z,2.30
2017-10-09T15:19:17.228Z,3.75
2017-10-09T15:21:43.666Z,5.70
2017-10-09T15:24:10.303Z,13.20
2017-10-09T15:26:37.782Z,12.40
2017-10-09T15:29:04.427Z,14.93
2017-10-09T15:31:31.929Z,6.93
2017-10-09T15:33:58.466Z,6.45
2017-10-09T15:36:27.067Z,6.50
2017-10-09T15:38:55.971Z,5.68
2017-10-09T15:41:23.987Z,5.03
2017-10-09T15:43:50.458Z,6.47
2017-10-09T15:46:17.208Z,3.78
2017-10-09T15:48:43.968Z,3.15
2017-10-09T15:51:10.628Z,3.75
2017-10-09T15:53:37.411Z,5.10
2017-10-09T15:56:04.671Z,5.20
2017-10-09T15:58:31.633Z,3.05
2017-10-09T16:00:58.292Z,4.75
2017-10-09T16:03:25.845Z,5.35
2017-10-09T16:05:52.371Z,4.50
2017-10-09T16:08:18.872Z,5.18
2017-10-09T16:10:46.176Z,5.22
2017-10-09T16:13:12.728Z,4.20
2017-10-09T16:15:39.279Z,4.53
2017-10-09T16:18:05.753Z,5.15
2017-10-09T16:20:32.245Z,4.80
2017-10-09T16:22:58.963Z,6.10
2017-10-09T16:25:26.229Z,5.70
2017-10-09T16:27:53.509Z,4.50
2017-10-09T16:30:20.034Z,3.45
2017-10-09T16:32:47.440Z,7.82
2017-10-09T16:35:13.996Z,3.97
2017-10-09T16:37:40.510Z,4.28
2017-10-09T16:40:07.321Z,5.25
2017-10-09T16:42:33.980Z,7.25
2017-10-09T16:45:00.640Z,6.85
2017-10-09T16:47:27.901Z,10.75
2017-10-09T16:49:54.414Z,5.40
2017-10-09T16:52:21.134Z,7.62
2017-10-09T16:54:47.895Z,6.97
2017-10-09T16:57:15.169Z,10.10
2017-10-09T16:59:41.675Z,8.05
2017-10-09T17:02:08.164Z,9.70
2017-10-09T17:04:35.357Z,9.00
2017-10-09T17:07:01.915Z,8.40
2017-10-09T17:09:29.206Z,8.10
2017-10-09T17:11:55.746Z,9.48
2017-10-09T17:14:23.087Z,13.23
2017-10-09T17:16:50.915Z,12.00
2017-10-09T17:19:17.480Z,24.77
2017-10-09T17:21:44.333Z,48.83
2017-10-09T17:24:10.849Z,112.22
2017-10-09T17:26:37.893Z,99.05
2017-10-09T17:29:04.415Z,65.78
2017-10-09T17:31:31.901Z,26.30
2017-10-09T17:33:58.574Z,21.67
2017-10-09T17:36:25.322Z,57.03
2017-10-09T17:38:52.092Z,27.40
2017-10-09T17:41:18.563Z,24.63
2017-10-09T17:43:45.062Z,30.25
2017-10-09T17:46:13.090Z,48.25
2017-10-09T17:48:40.462Z,31.05
2017-10-09T17:51:08.254Z,31.92
2017-10-09T17:53:34.812Z,35.00
2017-10-09T17:56:02.331Z,33.83
2017-10-09T17:58:29.051Z,22.48
2017-10-09T18:00:55.711Z,18.10
2017-10-09T18:03:23.194Z,16.17
2017-10-09T18:05:49.851Z,9.43
2017-10-09T18:08:16.720Z,9.95
2017-10-09T18:10:43.275Z,16.20
2017-10-09T18:13:10.519Z,12.13
2017-10-09T18:15:37.823Z,10.35
2017-10-09T18:18:05.270Z,18.73
2017-10-09T18:20:32.170Z,15.70
2017-10-09T18:22:58.756Z,14.63
2017-10-09T18:25:25.386Z,12.50
2017-10-09T18:27:52.252Z,10.40
2017-10-09T18:30:18.810Z,9.82
2017-10-09T18:32:46.087Z,11.27
2017-10-09T18:35:13.631Z,8.70
2017-10-09T18:37:40.636Z,7.68
2017-10-09T18:40:07.296Z,8.40
2017-10-09T18:42:34.365Z,7.80
2017-10-09T18:45:01.201Z,7.50
2017-10-09T18:47:28.708Z,6.68
2017-10-09T18:49:55.473Z,6.28
2017-10-09T18:52:22.138Z,5.53
2017-10-09T18:54:49.001Z,7.47
2017-10-09T18:57:16.305Z,7.43
2017-10-09T18:59:42.933Z,5.62
2017-10-09T19:02:09.745Z,6.30
2017-10-09T19:04:36.663Z,6.50
2017-10-09T19:07:03.222Z,5.65
2017-10-09T19:09:30.678Z,6.90
2017-10-09T19:11:58.951Z,7.00
2017-10-09T19:14:26.991Z,6.00
2017-10-09T19:16:53.648Z,5.93
2017-10-09T19:19:20.411Z,6.30
2017-10-09T19:21:47.070Z,5.87
2017-10-09T19:24:13.633Z,6.10
2017-10-09T19:26:41.828Z,6.57
2017-10-09T19:29:08.691Z,14.60
2017-10-09T19:31:36.276Z,12.50
2017-10-09T19:34:02.779Z,16.62
2017-10-09T19:36:29.490Z,14.90
2017-10-09T19:38:56.767Z,10.85
2017-10-09T19:41:24.654Z,11.27
2017-10-09T19:43:51.415Z,7.80
2017-10-09T19:46:18.905Z,7.50
2017-10-09T19:48:45.662Z,13.68
2017-10-09T19:51:12.421Z,9.40
2017-10-09T19:53:39.901Z,17.15
2017-10-09T19:56:06.970Z,20.65
2017-10-09T19:58:33.733Z,30.75
2017-10-09T20:01:00.310Z,74.62
2017-10-09T20:03:27.056Z,73.50
2017-10-09T20:05:54.625Z,86.07
2017-10-09T20:08:21.912Z,55.72
2017-10-09T20:10:48.365Z,34.85
2017-10-09T20:13:14.802Z,21.60
2017-10-09T20:15:42.060Z,17.02
2017-10-09T20:18:09.880Z,14.63
2017-10-09T20:20:36.449Z,12.83
2017-10-09T20:23:02.998Z,9.35
2017-10-09T20:25:29.559Z,10.77
2017-10-09T20:27:56.116Z,7.85
2017-10-09T20:30:22.646Z,8.93
2017-10-09T20:32:49.131Z,6.72
2017-10-09T20:35:15.690Z,5.65
2017-10-09T20:37:42.250Z,5.72
2017-10-09T20:40:09.116Z,6.90
2017-10-09T20:42:36.694Z,6.67
2017-10-09T20:45:03.356Z,6.37
2017-10-09T20:47:29.915Z,8.13
2017-10-09T20:49:56.408Z,7.72
2017-10-09T20:52:22.861Z,6.18
2017-10-09T20:54:49.302Z,5.35
2017-10-09T20:57:16.411Z,6.03
2017-10-09T20:59:44.303Z,6.13
2017-10-09T21:02:10.899Z,7.85
2017-10-09T21:04:37.558Z,6.62
2017-10-09T21:07:04.913Z,6.93
2017-10-09T21:09:32.212Z,7.62
2017-10-09T21:11:59.388Z,6.82
2017-10-09T21:14:27.583Z,6.12
2017-10-09T21:16:54.239Z,6.13
2017-10-09T21:19:20.796Z,7.47
2017-10-09T21:21:48.378Z,8.07
2017-10-09T21:24:16.065Z,7.40
2017-10-09T21:26:42.722Z,5.85
2017-10-09T21:29:09.384Z,6.93
2017-10-09T21:31:36.044Z,5.57
2017-10-09T21:34:03.212Z,5.20
2017-10-09T21:36:32.521Z,7.00
2017-10-09T21:38:59.724Z,6.70
2017-10-09T21:41:26.269Z,6.32
2017-10-09T21:43:53.728Z,5.90
2017-10-09T21:46:20.990Z,5.65
2017-10-09T21:48:47.577Z,5.70
2017-10-09T21:51:14.851Z,6.10
2017-10-09T21:53:41.307Z,5.90
2017-10-09T21:56:08.587Z,6.12
2017-10-09T21:58:35.143Z,6.05
2017-10-09T22:01:01.699Z,7.40
2017-10-09T22:03:28.976Z,5.93
2017-10-09T22:05:55.442Z,6.10
2017-10-09T22:08:21.901Z,5.90
2017-10-09T22:10:48.415Z,6.18
2017-10-09T22:13:14.900Z,6.07
2017-10-09T22:15:41.458Z,6.00
2017-10-09T22:18:08.018Z,5.60
2017-10-09T22:20:34.581Z,6.10
2017-10-09T22:23:01.030Z,6.47
2017-10-09T22:25:28.238Z,6.75
2017-10-09T22:27:54.764Z,6.40
2017-10-09T22:30:21.421Z,6.45
2017-10-09T22:32:48.695Z,7.12
2017-10-09T22:35:15.256Z,7.70
2017-10-09T22:37:42.465Z,7.07
2017-10-09T22:40:08.989Z,7.40
2017-10-09T22:42:35.545Z,7.10
2017-10-09T22:45:02.105Z,6.90
2017-10-09T22:47:28.673Z,6.53
2017-10-09T22:49:55.147Z,7.07
2017-10-09T22:52:21.675Z,7.90
2017-10-09T22:54:48.235Z,7.07
2017-10-09T22:57:14.895Z,7.68
2017-10-09T22:59:42.171Z,7.77
2017-10-09T23:02:08.727Z,7.22
2017-10-09T23:04:36.003Z,7.65
2017-10-09T23:07:02.466Z,8.98
2017-10-09T23:09:29.608Z,11.70
2017-10-09T23:11:57.013Z,8.77
2017-10-09T23:14:23.487Z,8.18
2017-10-09T23:16:50.027Z,9.70
2017-10-09T23:19:16.582Z,9.52
2017-10-09T23:21:43.079Z,8.80
2017-10-09T23:24:09.596Z,8.85
2017-10-09T23:26:36.154Z,7.97
2017-10-09T23:29:02.712Z,8.65
2017-10-09T23:31:29.373Z,10.60
2017-10-09T23:33:56.620Z,8.00
2017-10-09T23:36:23.079Z,9.68
2017-10-09T23:38:49.664Z,9.63
2017-10-09T23:41:16.223Z,10.55
2017-10-09T23:43:42.706Z,10.07
2017-10-09T23:46:09.649Z,10.40
2017-10-09T23:48:36.109Z,11.23
2017-10-09T23:51:02.658Z,12.20
2017-10-09T23:53:29.843Z,10.25
2017-10-09T23:55:56.269Z,10.93
2017-10-09T23:58:22.847Z,12.52
